createdAt,value
2018-01-08T00:00:54.960Z,2.08
2018-01-08T00:01:55.161Z,2.12
2018-01-08T00:02:55.140Z,2.15
2018-01-08T00:03:54.596Z,2.13
2018-01-08T00:04:55.103Z,2.13
2018-01-08T00:05:54.808Z,2.15
2018-01-08T00:06:55.044Z,2.13
2018-01-08T00:07:54.753Z,2.13
2018-01-08T00:08:54.727Z,2.08
2018-01-08T00:09:54.977Z,2.1
2018-01-08T00:10:54.951Z,2.1
2018-01-08T00:11:54.924Z,2.08
2018-01-08T00:12:54.904Z,2.12
2018-01-08T00:13:54.877Z,2.1
2018-01-08T00:14:54.587Z,2.2
2018-01-08T00:15:54.298Z,2.13
2018-01-08T00:16:54.804Z,2.16
2018-01-08T00:17:54.535Z,2.13
2018-01-08T00:18:54.497Z,2.16
2018-01-08T00:19:54.480Z,2.17
2018-01-08T00:20:54.715Z,2.09
2018-01-08T00:21:54.681Z,2.1
2018-01-08T00:22:54.394Z,2.13
2018-01-08T00:23:54.632Z,2.1
2018-01-08T00:24:54.084Z,2.2
2018-01-08T00:25:54.589Z,2.08
2018-01-08T00:26:54.303Z,2.13
2018-01-08T00:27:54.542Z,2.09
2018-01-08T00:28:54.251Z,2.09
2018-01-08T00:29:54.234Z,2.15
2018-01-08T00:30:54.478Z,2.16
2018-01-08T00:31:54.650Z,2.04
2018-01-08T00:32:54.426Z,2.16
2018-01-08T00:33:53.869Z,2.12
2018-01-08T00:34:54.375Z,2.09
2018-01-08T00:35:54.087Z,2.13
2018-01-08T00:36:54.061Z,2.13
2018-01-08T00:37:54.036Z,2.1
2018-01-08T00:38:54.276Z,2.08
2018-01-08T00:39:54.251Z,2.16
2018-01-08T00:40:53.968Z,2.13
2018-01-08T00:41:53.948Z,2.1
2018-01-08T00:42:53.944Z,2.08
2018-01-08T00:43:53.894Z,2.17
2018-01-08T00:44:53.880Z,2.09
2018-01-08T00:45:54.104Z,2.19
2018-01-08T00:46:53.821Z,2.16
2018-01-08T00:47:54.066Z,2.16
2018-01-08T00:48:53.781Z,2.13
2018-01-08T00:49:53.486Z,2.12
2018-01-08T00:50:53.467Z,2.15
2018-01-08T00:51:53.705Z,2.15
2018-01-08T00:52:53.681Z,2.15
2018-01-08T00:53:53.651Z,2.08
2018-01-08T00:54:53.903Z,1.99
2018-01-08T00:55:53.341Z,2.1
2018-01-08T00:56:53.586Z,2.08
2018-01-08T00:57:53.559Z,2.06
2018-01-08T00:58:53.801Z,2.08
2018-01-08T00:59:53.776Z,1.99
2018-01-08T01:00:53.492Z,1.99
2018-01-08T01:01:53.201Z,2.06
2018-01-08T01:02:53.176Z,1.97
2018-01-08T01:03:53.682Z,1.98
2018-01-08T01:04:53.653Z,1.98
2018-01-08T01:05:53.637Z,2.04
2018-01-08T01:06:53.343Z,2.01
2018-01-08T01:07:53.322Z,2.01
2018-01-08T01:08:53.295Z,2.02
2018-01-08T01:09:53.008Z,2.09
2018-01-08T01:10:53.244Z,1.99
2018-01-08T01:11:52.960Z,1.94
2018-01-08T01:12:53.197Z,1.98
2018-01-08T01:13:53.172Z,1.98
2018-01-08T01:14:53.166Z,2.02
2018-01-08T01:15:53.128Z,1.99
2018-01-08T01:16:53.364Z,2.1
2018-01-08T01:17:52.819Z,2.08
2018-01-08T01:18:53.059Z,2.04
2018-01-08T01:19:53.033Z,2.13
2018-01-08T01:20:53.014Z,2.08
2018-01-08T01:21:53.296Z,2.06
2018-01-08T01:22:52.957Z,2.02
2018-01-08T01:23:52.937Z,2.01
2018-01-08T01:24:53.174Z,2.08
2018-01-08T01:25:52.890Z,2.02
2018-01-08T01:26:53.127Z,2.2
2018-01-08T01:27:52.837Z,2.15
2018-01-08T01:28:52.815Z,2.13
2018-01-08T01:29:53.072Z,2.13
2018-01-08T01:30:52.555Z,2.15
2018-01-08T01:31:52.479Z,2.09
2018-01-08T01:32:52.986Z,2.2
2018-01-08T01:33:52.694Z,2.15
2018-01-08T01:34:52.673Z,2.17
2018-01-08T01:35:52.652Z,2.3
2018-01-08T01:36:52.902Z,2.19
2018-01-08T01:37:52.871Z,2.16
2018-01-08T01:38:52.314Z,2.27
2018-01-08T01:39:52.552Z,2.22
2018-01-08T01:40:52.262Z,2.22
2018-01-08T01:41:52.508Z,2.26
2018-01-08T01:42:52.748Z,2.22
2018-01-08T01:43:52.464Z,2.22
2018-01-08T01:44:52.426Z,2.31
2018-01-08T01:45:52.409Z,2.22
2018-01-08T01:46:52.657Z,2.31
2018-01-08T01:47:52.641Z,2.3
2018-01-08T01:48:52.340Z,2.27
2018-01-08T01:49:52.315Z,2.31
2018-01-08T01:50:52.025Z,2.27
2018-01-08T01:51:52.265Z,2.34
2018-01-08T01:52:51.981Z,2.27
2018-01-08T01:53:52.215Z,2.33
2018-01-08T01:54:52.201Z,2.28
2018-01-08T01:55:52.170Z,2.35
2018-01-08T01:56:52.413Z,2.34
2018-01-08T01:57:52.389Z,2.3
2018-01-08T01:58:51.832Z,2.34
2018-01-08T01:59:52.074Z,2.34
2018-01-08T02:00:51.794Z,2.37
2018-01-08T02:01:52.290Z,2.37
2018-01-08T02:02:52.268Z,2.35
2018-01-08T02:03:51.980Z,2.31
2018-01-08T02:04:52.223Z,2.31
2018-01-08T02:05:51.671Z,2.4
2018-01-08T02:06:51.910Z,2.34
2018-01-08T02:07:51.885Z,2.4
2018-01-08T02:08:51.859Z,2.33
2018-01-08T02:09:51.849Z,2.35
2018-01-08T02:10:51.814Z,2.37
2018-01-08T02:11:52.057Z,2.45
2018-01-08T02:12:52.031Z,2.33
2018-01-08T02:13:51.481Z,2.38
2018-01-08T02:14:51.717Z,2.33
2018-01-08T02:15:51.697Z,2.38
2018-01-08T02:16:51.672Z,2.38
2018-01-08T02:17:51.644Z,2.4
2018-01-08T02:18:51.881Z,2.44
2018-01-08T02:19:51.868Z,2.49
2018-01-08T02:20:51.575Z,2.38
2018-01-08T02:21:51.813Z,2.41
2018-01-08T02:22:51.264Z,2.38
2018-01-08T02:23:51.772Z,2.53
2018-01-08T02:24:51.482Z,2.44
2018-01-08T02:25:51.722Z,2.46
2018-01-08T02:26:51.172Z,2.48
2018-01-08T02:27:51.678Z,2.45
2018-01-08T02:28:51.403Z,2.45
2018-01-08T02:29:51.625Z,2.46
2018-01-08T02:30:51.596Z,2.49
2018-01-08T02:31:51.787Z,2.48
2018-01-08T02:32:51.300Z,2.4
2018-01-08T02:33:51.537Z,2.53
2018-01-08T02:34:51.511Z,2.49
2018-01-08T02:35:51.488Z,2.48
2018-01-08T02:36:51.195Z,2.51
2018-01-08T02:37:51.450Z,2.48
2018-01-08T02:38:51.157Z,2.51
2018-01-08T02:39:51.127Z,2.51
2018-01-08T02:40:51.106Z,2.48
2018-01-08T02:41:51.352Z,2.46
2018-01-08T02:42:51.314Z,2.55
2018-01-08T02:43:51.294Z,2.52
2018-01-08T02:44:50.745Z,2.58
2018-01-08T02:45:50.986Z,2.49
2018-01-08T02:46:51.222Z,2.58
2018-01-08T02:47:51.198Z,2.55
2018-01-08T02:48:50.910Z,2.58
2018-01-08T02:49:50.622Z,2.55
2018-01-08T02:50:50.868Z,2.58
2018-01-08T02:51:50.843Z,2.64
2018-01-08T02:52:50.818Z,2.56
2018-01-08T02:53:50.525Z,2.61
2018-01-08T02:54:51.041Z,2.59
2018-01-08T02:55:51.009Z,2.61
2018-01-08T02:56:50.459Z,2.58
2018-01-08T02:57:50.698Z,2.67
2018-01-08T02:58:50.407Z,2.58
2018-01-08T02:59:50.922Z,2.61
2018-01-08T03:00:50.622Z,2.69
2018-01-08T03:01:50.656Z,2.66
2018-01-08T03:02:50.576Z,2.69
2018-01-08T03:03:50.834Z,2.69
2018-01-08T03:04:50.529Z,2.64
2018-01-08T03:05:50.254Z,2.67
2018-01-08T03:06:50.749Z,2.64
2018-01-08T03:07:50.720Z,2.64
2018-01-08T03:08:50.749Z,2.69
2018-01-08T03:09:50.418Z,2.63
2018-01-08T03:10:50.394Z,2.67
2018-01-08T03:11:50.101Z,2.7
2018-01-08T03:12:50.339Z,2.67
2018-01-08T03:13:50.588Z,2.59
2018-01-08T03:14:50.033Z,2.73
2018-01-08T03:15:50.268Z,2.71
2018-01-08T03:16:50.507Z,2.64
2018-01-08T03:17:50.484Z,2.74
2018-01-08T03:18:50.462Z,2.73
2018-01-08T03:19:50.438Z,2.64
2018-01-08T03:20:50.154Z,2.63
2018-01-08T03:21:50.180Z,2.79
2018-01-08T03:22:49.868Z,2.69
2018-01-08T03:23:50.346Z,2.64
2018-01-08T03:24:50.058Z,2.69
2018-01-08T03:25:50.031Z,2.74
2018-01-08T03:26:50.274Z,2.63
2018-01-08T03:27:50.270Z,2.69
2018-01-08T03:28:50.227Z,2.76
2018-01-08T03:29:49.941Z,2.74
2018-01-08T03:30:49.923Z,2.64
2018-01-08T03:31:49.896Z,2.58
2018-01-08T03:32:49.870Z,2.76
2018-01-08T03:33:50.111Z,2.71
2018-01-08T03:34:50.085Z,2.73
2018-01-08T03:35:49.798Z,2.71
2018-01-08T03:36:50.038Z,2.76
2018-01-08T03:37:49.777Z,2.7
2018-01-08T03:38:49.993Z,2.69
2018-01-08T03:39:49.703Z,2.71
2018-01-08T03:40:49.677Z,2.79
2018-01-08T03:41:49.927Z,2.74
2018-01-08T03:42:49.639Z,2.74
2018-01-08T03:43:49.882Z,2.73
2018-01-08T03:44:49.324Z,2.64
2018-01-08T03:45:49.562Z,2.69
2018-01-08T03:46:49.283Z,2.64
2018-01-08T03:47:49.791Z,2.63
2018-01-08T03:48:49.498Z,2.63
2018-01-08T03:49:49.734Z,2.66
2018-01-08T03:50:49.713Z,2.76
2018-01-08T03:51:49.427Z,2.64
2018-01-08T03:52:49.666Z,2.64
2018-01-08T03:53:49.126Z,2.67
2018-01-08T03:54:49.094Z,2.76
2018-01-08T03:55:49.338Z,2.64
2018-01-08T03:56:49.040Z,2.71
2018-01-08T03:57:49.546Z,2.64
2018-01-08T03:58:49.528Z,2.74
2018-01-08T03:59:49.237Z,2.69
2018-01-08T04:00:49.214Z,2.73
2018-01-08T04:01:48.925Z,2.77
2018-01-08T04:02:49.425Z,2.7
2018-01-08T04:03:49.142Z,2.76
2018-01-08T04:04:49.123Z,2.71
2018-01-08T04:05:49.096Z,2.76
2018-01-08T04:06:49.335Z,2.74
2018-01-08T04:07:49.310Z,2.76
2018-01-08T04:08:49.025Z,2.73
2018-01-08T04:09:49.277Z,2.69
2018-01-08T04:10:48.989Z,2.64
2018-01-08T04:11:48.955Z,2.73
2018-01-08T04:12:49.191Z,2.69
2018-01-08T04:13:48.902Z,2.76
2018-01-08T04:14:48.880Z,2.69
2018-01-08T04:15:49.123Z,2.76
2018-01-08T04:16:48.841Z,2.73
2018-01-08T04:17:48.812Z,2.76
2018-01-08T04:18:48.790Z,2.74
2018-01-08T04:19:48.772Z,2.74
2018-01-08T04:20:49.034Z,2.69
2018-01-08T04:21:48.721Z,2.73
2018-01-08T04:22:48.963Z,2.73
2018-01-08T04:23:48.669Z,2.74
2018-01-08T04:24:48.662Z,2.73
2018-01-08T04:25:48.625Z,2.74
2018-01-08T04:26:48.609Z,2.7
2018-01-08T04:27:48.849Z,2.63
2018-01-08T04:28:48.341Z,2.76
2018-01-08T04:29:48.535Z,2.71
2018-01-08T04:30:48.512Z,2.71
2018-01-08T04:31:48.959Z,2.79
2018-01-08T04:32:48.202Z,2.73
2018-01-08T04:33:48.706Z,2.81
2018-01-08T04:34:48.684Z,2.77
2018-01-08T04:35:48.658Z,2.64
2018-01-08T04:36:48.632Z,2.67
2018-01-08T04:37:48.605Z,2.61
2018-01-08T04:38:48.587Z,2.59
2018-01-08T04:39:48.297Z,2.76
2018-01-08T04:40:48.280Z,2.66
2018-01-08T04:41:48.511Z,2.64
2018-01-08T04:42:48.490Z,2.64
2018-01-08T04:43:48.206Z,2.66
2018-01-08T04:44:48.186Z,2.61
2018-01-08T04:45:48.428Z,2.66
2018-01-08T04:46:48.400Z,2.64
2018-01-08T04:47:48.112Z,2.64
2018-01-08T04:48:47.825Z,2.67
2018-01-08T04:49:47.803Z,2.64
2018-01-08T04:50:48.040Z,2.67
2018-01-08T04:51:47.752Z,2.63
2018-01-08T04:52:48.265Z,2.64
2018-01-08T04:53:48.232Z,2.53
2018-01-08T04:54:47.946Z,2.51
2018-01-08T04:55:48.186Z,2.52
2018-01-08T04:56:47.901Z,2.56
2018-01-08T04:57:47.882Z,2.45
2018-01-08T04:58:47.861Z,2.49
2018-01-08T04:59:47.830Z,2.46
2018-01-08T05:00:47.541Z,2.41
2018-01-08T05:01:48.052Z,2.38
2018-01-08T05:02:47.764Z,2.37
2018-01-08T05:03:48.017Z,2.33
2018-01-08T05:04:47.712Z,2.17
2018-01-08T05:05:47.956Z,2.27
2018-01-08T05:06:47.933Z,2.22
2018-01-08T05:07:47.379Z,2.12
2018-01-08T05:08:47.881Z,2.19
2018-01-08T05:09:47.596Z,2.12
2018-01-08T05:10:47.568Z,2.15
2018-01-08T05:11:47.284Z,2.09
2018-01-08T05:12:47.263Z,2.13
2018-01-08T05:13:47.782Z,2.08
2018-01-08T05:14:47.476Z,2.02
2018-01-08T05:15:47.717Z,1.94
2018-01-08T05:16:47.433Z,1.94
2018-01-08T05:17:47.675Z,2.02
2018-01-08T05:18:47.121Z,1.93
2018-01-08T05:19:47.093Z,1.97
2018-01-08T05:20:47.334Z,1.94
2018-01-08T05:21:47.318Z,1.91
2018-01-08T05:22:47.294Z,1.82
2018-01-08T05:23:47.264Z,1.9
2018-01-08T05:24:47.240Z,1.82
2018-01-08T05:25:47.486Z,1.75
2018-01-08T05:26:47.188Z,1.83
2018-01-08T05:27:47.428Z,1.83
2018-01-08T05:28:47.151Z,1.83
2018-01-08T05:29:46.854Z,1.68
2018-01-08T05:30:47.100Z,1.78
2018-01-08T05:31:47.334Z,1.76
2018-01-08T05:32:47.056Z,1.8
2018-01-08T05:33:47.025Z,1.71
2018-01-08T05:34:47.267Z,1.79
2018-01-08T05:35:47.246Z,1.79
2018-01-08T05:36:47.221Z,1.65
2018-01-08T05:37:46.924Z,1.75
2018-01-08T05:38:46.911Z,1.65
2018-01-08T05:39:47.148Z,1.76
2018-01-08T05:40:47.123Z,1.68
2018-01-08T05:41:46.565Z,1.65
2018-01-08T05:42:46.823Z,1.65
2018-01-08T05:43:46.783Z,1.68
2018-01-08T05:44:46.761Z,1.68
2018-01-08T05:45:46.737Z,1.57
2018-01-08T05:46:46.977Z,1.61
2018-01-08T05:47:46.686Z,1.57
2018-01-08T05:48:46.930Z,1.58
2018-01-08T05:49:46.648Z,1.64
2018-01-08T05:50:46.879Z,1.6
2018-01-08T05:51:46.326Z,1.58
2018-01-08T05:52:46.846Z,1.54
2018-01-08T05:53:46.542Z,1.61
2018-01-08T05:54:46.513Z,1.6
2018-01-08T05:55:46.492Z,1.61
2018-01-08T05:56:46.212Z,1.61
2018-01-08T05:57:46.445Z,1.6
2018-01-08T05:58:46.684Z,1.58
2018-01-08T05:59:46.392Z,1.52
2018-01-08T06:00:46.107Z,1.54
2018-01-08T06:01:46.613Z,1.52
2018-01-08T06:02:46.066Z,1.55
2018-01-08T06:03:46.561Z,1.6
2018-01-08T06:04:46.539Z,1.5
2018-01-08T06:05:46.251Z,1.47
2018-01-08T06:06:45.961Z,1.51
2018-01-08T06:07:46.473Z,1.46
2018-01-08T06:08:45.913Z,1.51
2018-01-08T06:09:46.427Z,1.43
2018-01-08T06:10:46.172Z,1.4
2018-01-08T06:11:46.373Z,1.43
2018-01-08T06:12:46.081Z,1.4
2018-01-08T06:13:45.796Z,1.42
2018-01-08T06:14:46.300Z,1.37
2018-01-08T06:15:46.011Z,1.37
2018-01-08T06:16:46.339Z,1.42
2018-01-08T06:17:46.228Z,1.34
2018-01-08T06:18:45.938Z,1.39
2018-01-08T06:19:45.909Z,1.37
2018-01-08T06:20:46.149Z,1.4
2018-01-08T06:21:46.125Z,1.39
2018-01-08T06:22:46.110Z,1.37
2018-01-08T06:23:45.815Z,1.34
2018-01-08T06:24:46.067Z,1.28
2018-01-08T06:25:46.029Z,1.28
2018-01-08T06:26:45.744Z,1.25
2018-01-08T06:27:45.986Z,1.25
2018-01-08T06:28:45.957Z,1.28
2018-01-08T06:29:45.666Z,1.36
2018-01-08T06:30:45.381Z,1.32
2018-01-08T06:31:46.344Z,1.34
2018-01-08T06:32:45.612Z,1.4
2018-01-08T06:33:45.308Z,1.39
2018-01-08T06:34:45.549Z,1.4
2018-01-08T06:35:45.782Z,1.46
2018-01-08T06:36:45.762Z,1.5
2018-01-08T06:37:45.472Z,1.47
2018-01-08T06:38:45.714Z,1.46
2018-01-08T06:39:45.422Z,1.44
2018-01-08T06:40:45.405Z,1.55
2018-01-08T06:41:45.373Z,1.51
2018-01-08T06:42:45.354Z,1.55
2018-01-08T06:43:45.328Z,1.44
2018-01-08T06:44:45.042Z,1.39
2018-01-08T06:45:45.273Z,1.44
2018-01-08T06:46:45.257Z,1.54
2018-01-08T06:47:45.553Z,1.51
2018-01-08T06:48:45.468Z,1.43
2018-01-08T06:49:44.917Z,1.4
2018-01-08T06:50:44.890Z,1.42
2018-01-08T06:51:45.133Z,1.39
2018-01-08T06:52:45.367Z,1.4
2018-01-08T06:53:45.083Z,1.4
2018-01-08T06:54:45.059Z,1.42
2018-01-08T06:55:45.039Z,1.42
2018-01-08T06:56:45.273Z,1.43
2018-01-08T06:57:45.248Z,1.4
2018-01-08T06:58:45.219Z,1.5
2018-01-08T06:59:45.197Z,1.4
2018-01-08T07:00:45.191Z,1.4
2018-01-08T07:01:44.622Z,1.54
2018-01-08T07:02:44.598Z,1.4
2018-01-08T07:03:44.837Z,1.42
2018-01-08T07:04:44.820Z,1.4
2018-01-08T07:05:45.051Z,1.4
2018-01-08T07:06:44.503Z,1.44
2018-01-08T07:07:44.482Z,1.42
2018-01-08T07:08:44.714Z,1.34
2018-01-08T07:09:44.691Z,1.34
2018-01-08T07:10:44.408Z,1.34
2018-01-08T07:11:44.662Z,1.43
2018-01-08T07:12:44.951Z,1.37
2018-01-08T07:13:44.856Z,1.39
2018-01-08T07:14:44.579Z,1.37
2018-01-08T07:15:44.552Z,1.37
2018-01-08T07:16:44.790Z,1.36
2018-01-08T07:17:44.499Z,1.43
2018-01-08T07:18:44.741Z,1.44
2018-01-08T07:19:44.448Z,1.34
2018-01-08T07:20:44.686Z,1.37
2018-01-08T07:21:44.399Z,1.42
2018-01-08T07:22:44.383Z,1.4
2018-01-08T07:23:44.363Z,1.39
2018-01-08T07:24:44.331Z,1.42
2018-01-08T07:25:44.566Z,1.37
2018-01-08T07:26:44.283Z,1.36
2018-01-08T07:27:44.252Z,1.39
2018-01-08T07:28:44.229Z,1.32
2018-01-08T07:29:44.205Z,1.39
2018-01-08T07:30:44.183Z,1.37
2018-01-08T07:31:44.416Z,1.39
2018-01-08T07:32:44.183Z,1.4
2018-01-08T07:33:44.115Z,1.36
2018-01-08T07:34:44.081Z,1.36
2018-01-08T07:35:44.334Z,1.29
2018-01-08T07:36:44.035Z,1.32
2018-01-08T07:37:44.019Z,1.32
2018-01-08T07:38:43.984Z,1.37
2018-01-08T07:39:43.956Z,1.34
2018-01-08T07:40:44.204Z,1.32
2018-01-08T07:41:43.909Z,1.34
2018-01-08T07:42:43.894Z,1.36
2018-01-08T07:43:43.858Z,1.34
2018-01-08T07:44:44.103Z,1.28
2018-01-08T07:45:44.076Z,1.25
2018-01-08T07:46:43.796Z,1.33
2018-01-08T07:47:44.032Z,1.26
2018-01-08T07:48:44.001Z,1.36
2018-01-08T07:49:43.980Z,1.28
2018-01-08T07:50:43.952Z,1.29
2018-01-08T07:51:43.930Z,1.25
2018-01-08T07:52:43.911Z,1.33
2018-01-08T07:53:43.620Z,1.29
2018-01-08T07:54:43.605Z,1.26
2018-01-08T07:55:43.576Z,1.29
2018-01-08T07:56:43.553Z,1.32
2018-01-08T07:57:43.528Z,1.25
2018-01-08T07:58:43.759Z,1.32
2018-01-08T07:59:43.730Z,1.34
2018-01-08T08:00:43.444Z,1.37
2018-01-08T08:01:43.701Z,1.29
2018-01-08T08:02:43.662Z,1.26
2018-01-08T08:03:43.642Z,1.29
2018-01-08T08:04:43.349Z,1.33
2018-01-08T08:05:43.587Z,1.4
2018-01-08T08:06:43.562Z,1.29
2018-01-08T08:07:43.278Z,1.37
2018-01-08T08:08:42.985Z,1.29
2018-01-08T08:09:43.493Z,1.37
2018-01-08T08:10:42.934Z,1.43
2018-01-08T08:11:43.172Z,1.37
2018-01-08T08:12:43.414Z,1.37
2018-01-08T08:13:43.388Z,1.39
2018-01-08T08:14:43.107Z,1.39
2018-01-08T08:15:43.338Z,1.33
2018-01-08T08:16:43.320Z,1.34
2018-01-08T08:17:43.032Z,1.39
2018-01-08T08:18:43.010Z,1.4
2018-01-08T08:19:42.726Z,1.33
2018-01-08T08:20:43.220Z,1.32
2018-01-08T08:21:42.932Z,1.37
2018-01-08T08:22:43.171Z,1.36
2018-01-08T08:23:42.621Z,1.36
2018-01-08T08:24:43.127Z,1.37
2018-01-08T08:25:42.831Z,1.39
2018-01-08T08:26:42.544Z,1.43
2018-01-08T08:27:43.063Z,1.39
2018-01-08T08:28:42.766Z,1.54
2018-01-08T08:29:42.730Z,1.43
2018-01-08T08:30:42.708Z,1.5
2018-01-08T08:31:42.685Z,1.52
2018-01-08T08:32:42.661Z,1.44
2018-01-08T08:33:42.909Z,1.43
2018-01-08T08:34:42.612Z,1.39
2018-01-08T08:35:42.326Z,1.52
2018-01-08T08:36:42.833Z,1.52
2018-01-08T08:37:42.817Z,1.5
2018-01-08T08:38:42.516Z,1.5
2018-01-08T08:39:42.494Z,1.5
2018-01-08T08:40:42.467Z,1.54
2018-01-08T08:41:42.449Z,1.58
2018-01-08T08:42:42.417Z,1.55
2018-01-08T08:43:42.657Z,1.55
2018-01-08T08:44:42.381Z,1.6
2018-01-08T08:45:42.343Z,1.6
2018-01-08T08:46:42.584Z,1.61
2018-01-08T08:47:42.295Z,1.57
2018-01-08T08:48:42.328Z,1.6
2018-01-08T08:49:42.251Z,1.68
2018-01-08T08:50:41.962Z,1.68
2018-01-08T08:51:42.211Z,1.64
2018-01-08T08:52:42.440Z,1.69
2018-01-08T08:53:42.154Z,1.76
2018-01-08T08:54:42.125Z,1.75
2018-01-08T08:55:42.104Z,1.61
2018-01-08T08:56:42.076Z,1.71
2018-01-08T08:57:42.054Z,1.76
2018-01-08T08:58:42.023Z,1.8
2018-01-08T08:59:42.001Z,1.75
2018-01-08T09:00:42.305Z,1.87
2018-01-08T09:01:42.225Z,1.8
2018-01-08T09:02:41.932Z,1.9
2018-01-08T09:03:41.650Z,1.83
2018-01-08T09:04:42.148Z,1.78
2018-01-08T09:05:41.862Z,1.87
2018-01-08T09:06:42.108Z,1.94
2018-01-08T09:07:42.120Z,1.99
2018-01-08T09:08:41.521Z,2.01
2018-01-08T09:09:42.030Z,1.97
2018-01-08T09:10:42.003Z,1.94
2018-01-08T09:11:41.980Z,1.97
2018-01-08T09:12:41.428Z,2.09
2018-01-08T09:13:41.672Z,2.09
2018-01-08T09:14:41.957Z,2.08
2018-01-08T09:15:41.616Z,2.1
2018-01-08T09:16:41.866Z,2.19
2018-01-08T09:17:41.579Z,2.17
2018-01-08T09:18:41.543Z,2.22
2018-01-08T09:19:41.525Z,2.13
2018-01-08T09:20:41.764Z,2.17
2018-01-08T09:21:41.736Z,2.19
2018-01-08T09:22:41.446Z,2.17
2018-01-08T09:23:41.692Z,2.15
2018-01-08T09:24:41.403Z,2.26
2018-01-08T09:25:41.641Z,2.27
2018-01-08T09:26:41.090Z,2.35
2018-01-08T09:27:41.590Z,2.35
2018-01-08T09:28:41.575Z,2.45
2018-01-08T09:29:41.567Z,2.41
2018-01-08T09:30:41.270Z,2.37
2018-01-08T09:31:41.506Z,2.38
2018-01-08T09:32:41.474Z,2.55
2018-01-08T09:33:41.454Z,2.59
2018-01-08T09:34:41.173Z,2.66
2018-01-08T09:35:41.410Z,2.66
2018-01-08T09:36:41.120Z,2.7
2018-01-08T09:37:41.355Z,2.66
2018-01-08T09:38:41.336Z,2.7
2018-01-08T09:39:40.786Z,2.87
2018-01-08T09:40:41.024Z,3
2018-01-08T09:41:41.270Z,3.18
2018-01-08T09:42:41.235Z,3.2
2018-01-08T09:43:40.954Z,3.25
2018-01-08T09:44:40.930Z,3.34
2018-01-08T09:45:41.168Z,3.46
2018-01-08T09:46:41.152Z,3.43
2018-01-08T09:47:40.856Z,3.42
2018-01-08T09:48:40.840Z,3.52
2018-01-08T09:49:41.105Z,3.65
2018-01-08T09:50:40.795Z,3.72
2018-01-08T09:51:41.034Z,3.76
2018-01-08T09:52:40.746Z,3.82
2018-01-08T09:53:40.725Z,3.75
2018-01-08T09:54:40.964Z,3.8
2018-01-08T09:55:40.682Z,3.86
2018-01-08T09:56:40.656Z,3.97
2018-01-08T09:57:40.634Z,4.06
2018-01-08T09:58:40.667Z,4.1
2018-01-08T09:59:40.851Z,4.47
2018-01-08T10:00:40.566Z,4.8
2018-01-08T10:01:40.541Z,5.04
2018-01-08T10:02:40.522Z,5.14
2018-01-08T10:03:40.777Z,5.28
2018-01-08T10:04:40.760Z,5.48
2018-01-08T10:05:40.193Z,5.55
2018-01-08T10:06:40.439Z,5.82
2018-01-08T10:07:40.677Z,5.95
2018-01-08T10:08:40.658Z,6.3
2018-01-08T10:09:40.643Z,6.28
2018-01-08T10:10:40.359Z,6.53
2018-01-08T10:11:40.329Z,6.79
2018-01-08T10:12:40.578Z,7.13
2018-01-08T10:13:40.297Z,7.37
2018-01-08T10:14:40.543Z,7.62
2018-01-08T10:15:40.262Z,7.62
2018-01-08T10:16:40.500Z,7.81
2018-01-08T10:17:40.216Z,7.85
2018-01-08T10:18:40.463Z,7.67
2018-01-08T10:19:40.177Z,7.74
2018-01-08T10:20:40.158Z,7.78
2018-01-08T10:21:40.402Z,7.85
2018-01-08T10:22:40.123Z,7.93
2018-01-08T10:23:39.832Z,7.93
2018-01-08T10:24:40.124Z,8.02
2018-01-08T10:25:40.068Z,8.15
2018-01-08T10:26:40.041Z,8.25
2018-01-08T10:27:40.039Z,7.94
2018-01-08T10:28:40.291Z,7.96
2018-01-08T10:29:39.987Z,8.07
2018-01-08T10:30:40.249Z,7.94
2018-01-08T10:31:39.954Z,7.85
2018-01-08T10:32:40.401Z,7.81
2018-01-08T10:33:39.918Z,7.78
2018-01-08T10:34:40.158Z,7.55
2018-01-08T10:35:40.136Z,7.49
2018-01-08T10:36:39.852Z,7.27
2018-01-08T10:37:39.836Z,7.15
2018-01-08T10:38:39.557Z,7.2
2018-01-08T10:39:40.066Z,7.32
2018-01-08T10:40:39.784Z,7.26
2018-01-08T10:41:39.765Z,7.24
2018-01-08T10:42:39.753Z,6.95
2018-01-08T10:43:39.723Z,6.91
2018-01-08T10:44:39.706Z,7.04
2018-01-08T10:45:39.697Z,7.22
2018-01-08T10:46:39.939Z,7.17
2018-01-08T10:47:39.659Z,7.34
2018-01-08T10:48:39.370Z,7.44
2018-01-08T10:49:39.611Z,7.52
2018-01-08T10:50:39.867Z,7.58
2018-01-08T10:51:39.844Z,7.5
2018-01-08T10:52:39.826Z,7.62
2018-01-08T10:53:39.278Z,7.55
2018-01-08T10:54:39.518Z,7.45
2018-01-08T10:55:39.769Z,7.34
2018-01-08T10:56:39.739Z,7.42
2018-01-08T10:57:39.464Z,7.34
2018-01-08T10:58:39.713Z,7.27
2018-01-08T10:59:39.693Z,7.31
2018-01-08T11:00:39.679Z,7.29
2018-01-08T11:01:39.392Z,7.22
2018-01-08T11:02:39.375Z,7.32
2018-01-08T11:03:39.354Z,7.31
2018-01-08T11:04:39.336Z,7.32
2018-01-08T11:05:39.316Z,7.41
2018-01-08T11:06:39.302Z,7.55
2018-01-08T11:07:39.018Z,7.66
2018-01-08T11:08:39.532Z,7.59
2018-01-08T11:09:39.243Z,7.71
2018-01-08T11:10:39.222Z,7.77
2018-01-08T11:11:39.261Z,7.87
2018-01-08T11:12:39.459Z,7.87
2018-01-08T11:13:39.183Z,7.97
2018-01-08T11:14:39.472Z,8
2018-01-08T11:15:39.143Z,8.15
2018-01-08T11:16:38.871Z,8.18
2018-01-08T11:17:39.110Z,8.35
2018-01-08T11:18:39.349Z,8.18
2018-01-08T11:19:39.077Z,8.14
2018-01-08T11:20:39.058Z,8.1
2018-01-08T11:21:39.037Z,8.02
2018-01-08T11:22:39.020Z,8
2018-01-08T11:23:39.005Z,8.02
2018-01-08T11:24:38.991Z,8.12
2018-01-08T11:25:38.979Z,8.3
2018-01-08T11:26:38.688Z,8.4
2018-01-08T11:27:38.938Z,8.35
2018-01-08T11:28:38.922Z,8.21
2018-01-08T11:29:38.910Z,8.18
2018-01-08T11:30:38.894Z,8.25
2018-01-08T11:31:39.141Z,8.07
2018-01-08T11:32:39.131Z,8.07
2018-01-08T11:33:38.840Z,7.97
2018-01-08T11:34:38.863Z,7.93
2018-01-08T11:35:38.811Z,7.81
2018-01-08T11:36:39.059Z,7.78
2018-01-08T11:37:38.780Z,7.52
2018-01-08T11:38:38.767Z,7.38
2018-01-08T11:39:38.744Z,7.29
2018-01-08T11:40:38.999Z,7.13
2018-01-08T11:41:38.985Z,6.98
2018-01-08T11:42:38.955Z,7.04
2018-01-08T11:43:38.410Z,6.97
2018-01-08T11:44:38.402Z,6.91
2018-01-08T11:45:38.377Z,6.89
2018-01-08T11:46:38.888Z,6.86
2018-01-08T11:47:38.871Z,6.76
2018-01-08T11:48:38.853Z,6.61
2018-01-08T11:49:38.306Z,6.5
2018-01-08T11:50:38.815Z,6.54
2018-01-08T11:51:38.533Z,6.46
2018-01-08T11:52:38.777Z,6.44
2018-01-08T11:53:38.771Z,6.41
2018-01-08T11:54:38.478Z,6.33
2018-01-08T11:55:38.460Z,6.32
2018-01-08T11:56:38.440Z,6.25
2018-01-08T11:57:38.680Z,6.19
2018-01-08T11:58:38.665Z,6.21
2018-01-08T11:59:38.390Z,6.1
2018-01-08T12:00:38.359Z,6.14
2018-01-08T12:01:38.340Z,6.13
2018-01-08T12:02:38.590Z,6.1
2018-01-08T12:03:38.302Z,6.09
2018-01-08T12:04:38.553Z,6.07
2018-01-08T12:05:38.524Z,6.1
2018-01-08T12:06:37.990Z,6.07
2018-01-08T12:07:38.494Z,6.13
2018-01-08T12:08:38.472Z,6.18
2018-01-08T12:09:37.919Z,6.25
2018-01-08T12:10:38.161Z,6.32
2018-01-08T12:11:38.161Z,6.3
2018-01-08T12:12:38.123Z,6.36
2018-01-08T12:13:38.122Z,6.32
2018-01-08T12:14:38.349Z,6.33
2018-01-08T12:15:38.361Z,6.3
2018-01-08T12:16:38.042Z,6.32
2018-01-08T12:17:37.761Z,6.28
2018-01-08T12:18:37.739Z,6.36
2018-01-08T12:19:37.992Z,6.46
2018-01-08T12:20:37.960Z,6.46
2018-01-08T12:21:37.950Z,6.5
2018-01-08T12:22:37.924Z,6.56
2018-01-08T12:23:37.641Z,6.66
2018-01-08T12:24:38.201Z,6.76
2018-01-08T12:25:38.135Z,7.05
2018-01-08T12:26:37.592Z,7.4
2018-01-08T12:27:38.107Z,7.6
2018-01-08T12:28:38.085Z,7.87
2018-01-08T12:29:37.538Z,8.11
2018-01-08T12:30:37.781Z,8.32
2018-01-08T12:31:37.496Z,8.48
2018-01-08T12:32:37.951Z,8.78
2018-01-08T12:33:37.730Z,8.83
2018-01-08T12:34:37.983Z,8.86
2018-01-08T12:35:38.027Z,8.91
2018-01-08T12:36:37.712Z,9.18
2018-01-08T12:37:37.934Z,9.43
2018-01-08T12:38:37.385Z,9.63
2018-01-08T12:39:37.909Z,9.73
2018-01-08T12:40:37.883Z,10.04
2018-01-08T12:41:37.344Z,10.19
2018-01-08T12:42:37.325Z,10.34
2018-01-08T12:43:37.843Z,10.33
2018-01-08T12:44:37.628Z,10.47
2018-01-08T12:45:37.550Z,10.71
2018-01-08T12:46:37.271Z,10.78
2018-01-08T12:47:37.792Z,10.91
2018-01-08T12:48:37.781Z,10.88
2018-01-08T12:49:37.770Z,10.92
2018-01-08T12:50:37.221Z,10.98
2018-01-08T12:51:37.733Z,10.83
2018-01-08T12:52:37.457Z,10.96
2018-01-08T12:53:37.712Z,10.84
2018-01-08T12:54:37.173Z,10.94
2018-01-08T12:55:37.680Z,11.02
2018-01-08T12:56:37.412Z,11.13
2018-01-08T12:57:37.396Z,11.16
2018-01-08T12:58:37.111Z,11.02
2018-01-08T12:59:37.364Z,10.99
2018-01-08T13:00:37.352Z,10.96
2018-01-08T13:01:37.343Z,10.94
2018-01-08T13:02:37.337Z,10.95
2018-01-08T13:03:37.317Z,11.09
2018-01-08T13:04:37.305Z,11.01
2018-01-08T13:05:37.294Z,11.31
2018-01-08T13:06:37.543Z,11.36
2018-01-08T13:07:37.534Z,11.52
2018-01-08T13:08:37.255Z,11.43
2018-01-08T13:09:37.248Z,11.47
2018-01-08T13:10:37.507Z,11.49
2018-01-08T13:11:37.488Z,11.36
2018-01-08T13:12:37.213Z,11.35
2018-01-08T13:13:36.932Z,11.46
2018-01-08T13:14:37.189Z,11.41
2018-01-08T13:15:37.185Z,11.44
2018-01-08T13:16:37.419Z,11.56
2018-01-08T13:17:37.417Z,11.47
2018-01-08T13:18:37.400Z,11.47
2018-01-08T13:19:37.160Z,11.32
2018-01-08T13:20:37.377Z,11.35